createdAt,value
2018-01-15T00:00:57.086Z,-1.20
2018-01-15T00:03:26.240Z,-1.20
2018-01-15T00:05:54.977Z,-1.20
2018-01-15T00:08:24.133Z,-1.40
2018-01-15T00:10:52.550Z,-1.40
2018-01-15T00:13:21.844Z,-1.50
2018-01-15T00:15:50.992Z,-1.60
2018-01-15T00:18:19.383Z,-1.60
2018-01-15T00:20:47.807Z,-1.60
2018-01-15T00:23:17.205Z,-1.70
2018-01-15T00:25:46.362Z,-1.70
2018-01-15T00:28:14.965Z,-1.70
2018-01-15T00:30:43.355Z,-1.70
2018-01-15T00:33:11.751Z,-1.80
2018-01-15T00:35:41.148Z,-1.90
2018-01-15T00:38:10.299Z,-1.70
2018-01-15T00:40:38.751Z,-1.80
2018-01-15T00:43:07.174Z,-1.80
2018-01-15T00:45:35.576Z,-1.80
2018-01-15T00:48:04.014Z,-1.50
2018-01-15T00:50:32.431Z,-1.50
2018-01-15T00:53:00.826Z,-1.60
2018-01-15T00:55:29.992Z,-1.90
2018-01-15T00:57:58.516Z,-1.90
2018-01-15T01:00:27.363Z,-1.90
2018-01-15T01:02:55.756Z,-1.90
2018-01-15T01:05:24.270Z,-1.90
2018-01-15T01:07:52.994Z,-1.80
2018-01-15T01:10:21.377Z,-1.80
2018-01-15T01:12:49.833Z,-1.80
2018-01-15T01:15:18.260Z,-1.90
2018-01-15T01:17:46.663Z,-1.90
2018-01-15T01:20:15.933Z,-1.90
2018-01-15T01:22:45.828Z,-1.90
2018-01-15T01:25:15.064Z,-1.90
2018-01-15T01:27:44.655Z,-2.00
2018-01-15T01:30:13.050Z,-2.00
2018-01-15T01:32:42.260Z,-1.90
2018-01-15T01:35:11.528Z,-1.80
2018-01-15T01:37:40.011Z,-1.80
2018-01-15T01:40:08.487Z,-1.60
2018-01-15T01:42:36.909Z,-1.40
2018-01-15T01:45:05.374Z,-1.30
2018-01-15T01:47:34.545Z,-1.30
2018-01-15T01:50:03.987Z,-1.30
2018-01-15T01:52:33.183Z,-1.20
2018-01-15T01:55:02.337Z,-1.10
2018-01-15T01:57:30.774Z,-1.10
2018-01-15T01:59:59.155Z,-1.10
2018-01-15T02:02:27.563Z,-1.00
2018-01-15T02:04:55.982Z,-1.00
2018-01-15T02:07:25.138Z,-0.90
2018-01-15T02:09:53.930Z,-0.90
2018-01-15T02:12:22.337Z,-1.00
2018-01-15T02:14:51.518Z,-1.00
2018-01-15T02:17:20.682Z,-0.90
2018-01-15T02:19:49.197Z,-0.90
2018-01-15T02:22:17.586Z,-0.80
2018-01-15T02:24:46.026Z,-0.70
2018-01-15T02:27:15.079Z,-0.50
2018-01-15T02:29:43.462Z,-0.50
2018-01-15T02:32:12.676Z,-0.50
2018-01-15T02:34:41.142Z,-0.60
2018-01-15T02:37:10.312Z,-0.50
2018-01-15T02:39:38.733Z,-0.50
2018-01-15T02:42:07.396Z,-0.40
2018-01-15T02:44:36.545Z,-0.40
2018-01-15T02:47:04.926Z,-0.40
2018-01-15T02:49:33.586Z,-0.30
2018-01-15T02:52:02.194Z,-0.30
2018-01-15T02:54:30.573Z,-0.30
2018-01-15T02:56:58.990Z,-0.40
2018-01-15T02:59:27.372Z,-0.40
2018-01-15T03:01:55.735Z,-0.50
2018-01-15T03:04:24.272Z,-0.50
2018-01-15T03:06:52.703Z,-0.40
2018-01-15T03:09:21.091Z,-0.40
2018-01-15T03:11:49.951Z,-0.40
2018-01-15T03:14:18.342Z,-0.40
2018-01-15T03:16:46.766Z,-0.40
2018-01-15T03:19:15.480Z,-0.50
2018-01-15T03:21:43.880Z,-0.50
2018-01-15T03:24:12.262Z,-0.50
2018-01-15T03:26:41.072Z,-0.40
2018-01-15T03:29:09.835Z,-0.30
2018-01-15T03:31:38.228Z,-0.20
2018-01-15T03:34:06.813Z,-0.20
2018-01-15T03:36:35.206Z,-0.30
2018-01-15T03:39:03.692Z,-0.30
2018-01-15T03:41:32.928Z,-0.20
2018-01-15T03:44:01.313Z,-0.30
2018-01-15T03:46:29.823Z,-0.20
2018-01-15T03:48:58.336Z,-0.10
2018-01-15T03:51:27.484Z,-0.10
2018-01-15T03:53:56.159Z,-0.10
2018-01-15T03:56:25.446Z,0.00
2018-01-15T03:58:53.821Z,0.00
2018-01-15T04:01:22.193Z,0.10
2018-01-15T04:03:50.634Z,0.20
2018-01-15T04:06:19.036Z,0.20
2018-01-15T04:08:48.179Z,0.20
2018-01-15T04:11:16.795Z,0.20
2018-01-15T04:13:45.577Z,0.20
2018-01-15T04:16:13.982Z,0.30
2018-01-15T04:18:43.523Z,0.30
2018-01-15T04:21:11.909Z,0.40
2018-01-15T04:23:40.335Z,0.40
2018-01-15T04:26:09.616Z,0.40
2018-01-15T04:28:38.030Z,0.40
2018-01-15T04:31:07.390Z,0.40
2018-01-15T04:33:35.907Z,0.40
2018-01-15T04:36:05.091Z,0.50
2018-01-15T04:38:33.474Z,0.50
2018-01-15T04:41:02.036Z,0.50
2018-01-15T04:43:30.451Z,0.50
2018-01-15T04:45:59.593Z,0.60
2018-01-15T04:48:28.197Z,0.60
2018-01-15T04:50:56.609Z,0.60
2018-01-15T04:53:26.694Z,0.60
2018-01-15T04:55:55.311Z,0.60
2018-01-15T04:58:24.443Z,0.70
2018-01-15T05:00:52.831Z,0.70
2018-01-15T05:03:21.398Z,0.70
2018-01-15T05:05:49.774Z,0.70
2018-01-15T05:08:18.172Z,0.70
2018-01-15T05:10:46.726Z,0.70
2018-01-15T05:13:15.892Z,0.80
2018-01-15T05:15:45.264Z,0.80
2018-01-15T05:18:13.978Z,0.80
2018-01-15T05:20:42.364Z,0.80
2018-01-15T05:23:10.738Z,0.90
2018-01-15T05:25:39.246Z,0.80
2018-01-15T05:28:08.374Z,0.90
2018-01-15T05:30:36.777Z,0.90
2018-01-15T05:33:07.204Z,1.00
2018-01-15T05:35:35.589Z,1.00
2018-01-15T05:38:03.983Z,1.00
2018-01-15T05:40:32.443Z,1.00
2018-01-15T05:43:00.844Z,1.00
2018-01-15T05:45:29.236Z,1.00
2018-01-15T05:47:58.730Z,1.10
2018-01-15T05:50:27.115Z,1.10
2018-01-15T05:52:55.497Z,1.00
2018-01-15T05:55:24.867Z,1.10
2018-01-15T05:57:53.295Z,1.10
2018-01-15T06:00:22.473Z,1.10
2018-01-15T06:02:51.864Z,1.10
2018-01-15T06:05:20.245Z,1.10
2018-01-15T06:07:48.623Z,1.10
2018-01-15T06:10:17.523Z,1.20
2018-01-15T06:12:46.675Z,1.20
2018-01-15T06:15:15.063Z,1.20
2018-01-15T06:17:44.115Z,1.20
2018-01-15T06:20:12.530Z,1.20
2018-01-15T06:22:40.945Z,1.20
2018-01-15T06:25:09.365Z,1.20
2018-01-15T06:27:37.749Z,1.20
2018-01-15T06:30:06.188Z,1.10
2018-01-15T06:32:35.667Z,1.20
2018-01-15T06:35:04.602Z,1.20
2018-01-15T06:37:33.742Z,1.10
2018-01-15T06:40:02.271Z,1.20
2018-01-15T06:42:31.432Z,1.10
2018-01-15T06:44:59.870Z,1.10
2018-01-15T06:47:28.313Z,1.10
2018-01-15T06:49:56.692Z,1.10
2018-01-15T06:52:25.142Z,1.10
2018-01-15T06:54:53.750Z,1.10
2018-01-15T06:57:22.141Z,1.00
2018-01-15T06:59:50.785Z,1.10
2018-01-15T07:02:19.226Z,1.00
2018-01-15T07:04:47.608Z,1.10
2018-01-15T07:07:16.024Z,1.00
2018-01-15T07:09:44.643Z,1.00
2018-01-15T07:12:13.038Z,1.00
2018-01-15T07:14:42.249Z,1.00
2018-01-15T07:17:10.671Z,1.10
2018-01-15T07:19:39.459Z,1.10
2018-01-15T07:22:07.873Z,1.10
2018-01-15T07:24:37.173Z,1.10
2018-01-15T07:27:06.362Z,1.20
2018-01-15T07:29:34.760Z,1.20
2018-01-15T07:32:04.243Z,1.20
2018-01-15T07:34:32.664Z,1.10
2018-01-15T07:37:01.109Z,1.20
2018-01-15T07:39:29.611Z,1.20
2018-01-15T07:41:58.866Z,1.20
2018-01-15T07:44:28.013Z,1.30
2018-01-15T07:46:56.492Z,1.20
2018-01-15T07:49:24.924Z,1.20
2018-01-15T07:51:53.321Z,1.30
2018-01-15T07:54:21.845Z,1.30
2018-01-15T07:56:50.225Z,1.30
2018-01-15T07:59:18.626Z,1.30
2018-01-15T08:01:47.242Z,1.30
2018-01-15T08:04:15.623Z,1.40
2018-01-15T08:06:44.022Z,1.40
2018-01-15T08:09:13.422Z,1.30
2018-01-15T08:11:42.586Z,1.40
2018-01-15T08:14:10.991Z,1.40
2018-01-15T08:16:39.555Z,1.40
2018-01-15T08:19:07.968Z,1.30
2018-01-15T08:21:36.821Z,1.40
2018-01-15T08:24:05.265Z,1.40
2018-01-15T08:26:33.687Z,1.50
2018-01-15T08:29:02.164Z,1.50
2018-01-15T08:31:30.678Z,1.50
2018-01-15T08:33:59.835Z,1.50
2018-01-15T08:36:28.319Z,1.50
2018-01-15T08:38:57.970Z,1.60
2018-01-15T08:41:26.363Z,1.60
2018-01-15T08:43:54.765Z,1.50
2018-01-15T08:46:23.217Z,1.50
2018-01-15T08:48:51.595Z,1.50
2018-01-15T08:51:20.136Z,1.60
2018-01-15T08:53:48.572Z,1.60
2018-01-15T08:56:16.945Z,1.70
2018-01-15T08:58:45.356Z,1.70
2018-01-15T09:01:13.940Z,1.70
2018-01-15T09:03:42.391Z,1.70
2018-01-15T09:06:10.789Z,1.70
2018-01-15T09:08:39.303Z,1.70
2018-01-15T09:11:07.768Z,1.80
2018-01-15T09:13:36.177Z,1.70
2018-01-15T09:16:05.505Z,1.80
2018-01-15T09:18:33.898Z,1.80
2018-01-15T09:21:02.278Z,1.80
2018-01-15T09:23:31.199Z,1.80
2018-01-15T09:25:59.594Z,1.80
2018-01-15T09:28:28.943Z,1.80
2018-01-15T09:30:57.456Z,1.70
2018-01-15T09:33:26.601Z,1.80
2018-01-15T09:35:54.993Z,1.80
2018-01-15T09:38:23.771Z,1.80
2018-01-15T09:40:52.544Z,1.80
2018-01-15T09:43:21.705Z,1.90
2018-01-15T09:45:50.251Z,1.90
2018-01-15T09:48:18.666Z,1.80
2018-01-15T09:50:47.083Z,1.90
2018-01-15T09:53:16.615Z,2.00
2018-01-15T09:55:45.031Z,2.00
2018-01-15T09:58:13.409Z,1.90
2018-01-15T10:00:41.979Z,2.00
2018-01-15T10:03:10.419Z,1.90
2018-01-15T10:05:38.842Z,2.00
2018-01-15T10:08:07.334Z,2.10
2018-01-15T10:10:35.724Z,2.00
2018-01-15T10:13:04.123Z,2.00
2018-01-15T10:15:32.780Z,2.00
2018-01-15T10:18:01.824Z,1.90
2018-01-15T10:20:30.203Z,1.90
2018-01-15T10:22:59.591Z,2.00
2018-01-15T10:25:29.061Z,2.00
2018-01-15T10:27:57.458Z,1.90
2018-01-15T10:30:25.908Z,2.00
2018-01-15T10:32:54.297Z,2.00
2018-01-15T10:35:22.681Z,2.00
2018-01-15T10:37:51.088Z,2.10
2018-01-15T10:40:20.252Z,2.10
2018-01-15T10:42:48.749Z,2.00
2018-01-15T10:45:17.317Z,2.00
2018-01-15T10:47:45.722Z,2.10
2018-01-15T10:50:14.117Z,2.00
2018-01-15T10:52:42.547Z,2.00
2018-01-15T10:55:10.982Z,2.10
2018-01-15T10:57:39.385Z,2.00
2018-01-15T11:00:07.848Z,2.10
2018-01-15T11:02:37.006Z,2.20
2018-01-15T11:05:05.424Z,2.10
2018-01-15T11:07:34.276Z,2.20
2018-01-15T11:10:02.685Z,2.10
2018-01-15T11:12:31.832Z,2.10
2018-01-15T11:15:00.255Z,2.10
2018-01-15T11:17:29.420Z,2.20
2018-01-15T11:19:57.832Z,2.10
2018-01-15T11:22:27.112Z,2.20
2018-01-15T11:24:55.525Z,2.10
2018-01-15T11:27:24.254Z,2.20
2018-01-15T11:29:52.787Z,2.20
2018-01-15T11:32:21.202Z,2.30
2018-01-15T11:34:49.596Z,2.20
2018-01-15T11:37:18.181Z,2.30
2018-01-15T11:39:46.574Z,2.20
2018-01-15T11:42:14.979Z,2.20
2018-01-15T11:44:44.476Z,2.20
2018-01-15T11:47:13.615Z,2.10
2018-01-15T11:49:42.012Z,2.10
2018-01-15T11:52:10.614Z,2.20
2018-01-15T11:54:39.847Z,2.20
2018-01-15T11:57:08.266Z,2.20
2018-01-15T11:59:36.717Z,2.20
2018-01-15T12:02:05.086Z,2.10
2018-01-15T12:04:34.252Z,2.20
2018-01-15T12:07:02.775Z,2.10
2018-01-15T12:09:31.258Z,2.20
2018-01-15T12:11:59.676Z,2.30
2018-01-15T12:14:28.197Z,2.10
2018-01-15T12:16:57.358Z,2.20
2018-01-15T12:19:25.895Z,2.20
2018-01-15T12:21:54.452Z,2.30
2018-01-15T12:24:22.898Z,2.20
2018-01-15T12:26:51.389Z,2.20
2018-01-15T12:29:20.123Z,2.30
2018-01-15T12:31:48.564Z,2.40
2018-01-15T12:34:16.985Z,2.40
2018-01-15T12:36:45.446Z,2.40
2018-01-15T12:39:14.590Z,2.50
2018-01-15T12:41:42.979Z,2.40
2018-01-15T12:44:12.384Z,2.40
2018-01-15T12:46:41.181Z,2.40
2018-01-15T12:49:09.586Z,2.30
2018-01-15T12:51:38.874Z,2.30
2018-01-15T12:54:07.307Z,2.40
2018-01-15T12:56:35.687Z,2.40
2018-01-15T12:59:04.278Z,2.40
2018-01-15T13:01:32.779Z,2.40
2018-01-15T13:04:01.154Z,2.50
2018-01-15T13:06:41.535Z,2.50
2018-01-15T13:09:11.882Z,2.60
2018-01-15T13:11:40.299Z,2.60
2018-01-15T13:14:10.406Z,2.60
2018-01-15T13:16:38.815Z,2.50
2018-01-15T13:19:07.217Z,2.60
2018-01-15T13:21:35.690Z,2.60
2018-01-15T13:24:04.878Z,2.70
2018-01-15T13:26:33.308Z,2.80
2018-01-15T13:29:01.970Z,2.80
2018-01-15T13:31:31.283Z,2.90
2018-01-15T13:34:00.544Z,2.80
2018-01-15T13:36:29.115Z,2.80
2018-01-15T13:38:58.314Z,2.90
2018-01-15T13:41:28.835Z,2.80
2018-01-15T13:43:57.272Z,2.90
2018-01-15T13:46:26.469Z,2.90
2018-01-15T13:48:55.613Z,3.00
2018-01-15T13:51:24.194Z,3.00
2018-01-15T13:53:53.757Z,3.00
2018-01-15T13:56:24.333Z,3.10
2018-01-15T13:58:53.548Z,3.10
2018-01-15T14:01:21.978Z,3.20
2018-01-15T14:03:50.369Z,3.30
2018-01-15T14:06:19.129Z,3.30
2018-01-15T14:08:47.663Z,3.30
2018-01-15T14:11:16.116Z,3.30
2018-01-15T14:13:44.643Z,3.40
2018-01-15T14:16:13.123Z,3.30
2018-01-15T14:18:41.662Z,3.40
2018-01-15T14:21:10.269Z,3.40
2018-01-15T14:23:39.271Z,3.50
2018-01-15T14:26:08.785Z,3.50
2018-01-15T14:28:37.212Z,3.50
2018-01-15T14:31:05.593Z,3.60
2018-01-15T14:33:34.342Z,3.70
2018-01-15T14:36:03.732Z,3.70
2018-01-15T14:38:32.128Z,3.80
2018-01-15T14:41:00.553Z,3.80
2018-01-15T14:43:29.439Z,3.90
2018-01-15T14:45:57.840Z,4.00
2018-01-15T14:48:26.543Z,4.00
2018-01-15T14:50:55.408Z,3.90
2018-01-15T14:53:23.894Z,3.90
2018-01-15T14:55:52.293Z,3.90
2018-01-15T14:58:20.910Z,3.80
2018-01-15T15:00:50.088Z,3.80
2018-01-15T15:03:18.503Z,3.80
2018-01-15T15:05:47.779Z,3.80
2018-01-15T15:08:16.953Z,3.80
2018-01-15T15:10:45.341Z,3.80
2018-01-15T15:13:14.034Z,3.80
2018-01-15T15:15:42.456Z,3.80
2018-01-15T15:18:10.878Z,3.80
2018-01-15T15:20:39.667Z,3.80
2018-01-15T15:23:08.152Z,3.70
2018-01-15T15:25:36.575Z,3.70
2018-01-15T15:28:05.006Z,3.60
2018-01-15T15:30:33.388Z,3.60
2018-01-15T15:33:01.794Z,3.50
2018-01-15T15:35:31.379Z,3.40
2018-01-15T15:37:59.813Z,3.40
2018-01-15T15:40:28.288Z,3.40
2018-01-15T15:42:56.822Z,3.50
2018-01-15T15:45:25.188Z,3.40
2018-01-15T15:47:53.588Z,3.50
2018-01-15T15:50:22.137Z,3.50
2018-01-15T15:52:50.503Z,3.50
2018-01-15T15:55:19.116Z,3.40
2018-01-15T15:57:47.635Z,3.50
2018-01-15T16:00:16.844Z,3.40
2018-01-15T16:02:45.480Z,3.40
2018-01-15T16:05:13.934Z,3.40
2018-01-15T16:07:42.516Z,3.30
2018-01-15T16:10:11.703Z,3.40
2018-01-15T16:12:40.118Z,3.30
2018-01-15T16:15:08.892Z,3.40
2018-01-15T16:17:37.334Z,3.40
2018-01-15T16:20:06.735Z,3.40
2018-01-15T16:25:34.401Z,3.30
2018-01-15T16:28:02.855Z,3.50
2018-01-15T16:30:31.375Z,3.40
2018-01-15T16:33:00.669Z,3.50
2018-01-15T16:35:29.893Z,3.50
2018-01-15T16:37:58.991Z,3.50
2018-01-15T16:40:27.627Z,3.50
2018-01-15T16:42:56.094Z,3.60
2018-01-15T16:45:24.548Z,3.60
2018-01-15T16:47:53.167Z,3.70
2018-01-15T16:50:26.405Z,3.70
2018-01-15T16:52:54.915Z,3.80
2018-01-15T16:55:23.340Z,3.80
2018-01-15T16:57:51.745Z,3.80
2018-01-15T17:00:20.249Z,3.90
2018-01-15T17:02:48.690Z,3.90
2018-01-15T17:05:17.849Z,4.00
2018-01-15T17:07:46.294Z,3.90
2018-01-15T17:10:14.926Z,4.00
2018-01-15T17:12:43.308Z,4.00
2018-01-15T17:15:11.876Z,4.10
2018-01-15T17:17:40.267Z,4.10
2018-01-15T17:20:08.672Z,4.00
2018-01-15T17:22:37.915Z,3.90
2018-01-15T17:25:06.333Z,3.80
2018-01-15T17:27:34.731Z,3.80
2018-01-15T17:30:04.976Z,3.70
2018-01-15T17:32:33.362Z,3.60
2018-01-15T17:35:01.747Z,3.60
2018-01-15T17:37:30.182Z,3.60
2018-01-15T17:39:59.192Z,3.60
2018-01-15T17:42:28.398Z,3.80
2018-01-15T17:44:57.238Z,3.70
2018-01-15T17:47:25.613Z,3.80
2018-01-15T17:49:54.035Z,3.80
2018-01-15T17:52:22.699Z,3.80
2018-01-15T17:54:51.085Z,3.80
2018-01-15T17:57:20.222Z,3.90
2018-01-15T17:59:48.719Z,3.90
2018-01-15T18:02:17.185Z,3.90
2018-01-15T18:04:45.723Z,3.90
2018-01-15T18:07:14.313Z,3.80
2018-01-15T18:09:43.464Z,3.80
2018-01-15T18:12:12.618Z,3.80
2018-01-15T18:14:41.889Z,3.80
2018-01-15T18:17:10.288Z,3.80
2018-01-15T18:19:39.455Z,3.70
2018-01-15T18:22:08.073Z,3.70
2018-01-15T18:24:36.548Z,3.70
2018-01-15T18:27:05.694Z,3.80
2018-01-15T18:29:34.941Z,3.80
2018-01-15T18:32:04.154Z,3.80
2018-01-15T18:34:33.306Z,3.80
2018-01-15T18:37:01.891Z,3.70
2018-01-15T18:39:30.286Z,3.70
2018-01-15T18:41:59.797Z,3.80
2018-01-15T18:44:28.225Z,3.80
2018-01-15T18:46:56.611Z,3.80
2018-01-15T18:49:25.033Z,3.80
2018-01-15T18:51:53.481Z,3.80
2018-01-15T18:54:21.944Z,3.80
2018-01-15T18:56:50.362Z,3.80
2018-01-15T18:59:18.912Z,3.80
2018-01-15T19:01:48.062Z,3.90
2018-01-15T19:04:17.202Z,3.90
2018-01-15T19:06:45.724Z,3.80
2018-01-15T19:09:14.120Z,3.90
2018-01-15T19:11:43.281Z,3.90
2018-01-15T19:14:12.006Z,3.90
2018-01-15T19:16:40.399Z,3.90
2018-01-15T19:19:09.087Z,3.90
2018-01-15T19:21:37.738Z,4.00
2018-01-15T19:24:06.156Z,4.00
2018-01-15T19:26:34.581Z,4.00
2018-01-15T19:29:03.352Z,4.00
2018-01-15T19:31:31.793Z,4.00
2018-01-15T19:34:00.968Z,4.00
2018-01-15T19:39:33.596Z,4.00
2018-01-15T19:42:03.540Z,4.00
2018-01-15T19:44:37.443Z,4.10
2018-01-15T19:47:11.545Z,4.10
2018-01-15T19:49:45.403Z,4.10
2018-01-15T19:52:19.494Z,4.10
2018-01-15T19:54:53.465Z,4.20
2018-01-15T19:57:27.736Z,4.20
2018-01-15T20:00:01.844Z,4.20
2018-01-15T20:02:36.288Z,4.20
2018-01-15T20:05:10.377Z,4.20
2018-01-15T20:07:44.350Z,4.20
2018-01-15T20:10:18.398Z,4.20
2018-01-15T20:12:46.891Z,4.20
2018-01-15T20:15:15.299Z,4.20
2018-01-15T20:17:44.442Z,4.20
2018-01-15T20:20:12.957Z,4.20
2018-01-15T20:22:41.329Z,4.20
2018-01-15T20:25:11.616Z,4.20
2018-01-15T20:27:40.125Z,4.20
2018-01-15T20:30:08.519Z,4.20
2018-01-15T20:32:36.907Z,4.20
2018-01-15T20:35:06.244Z,4.10
2018-01-15T20:37:34.644Z,4.10
2018-01-15T20:40:03.031Z,4.10
2018-01-15T20:42:31.950Z,4.10
2018-01-15T20:45:00.395Z,4.10
2018-01-15T20:47:28.766Z,4.10
2018-01-15T20:49:57.249Z,4.10
2018-01-15T20:52:25.697Z,4.10
2018-01-15T20:54:54.063Z,4.10
2018-01-15T20:57:23.236Z,4.00
2018-01-15T20:59:51.616Z,4.10
2018-01-15T21:02:20.045Z,4.00
2018-01-15T21:04:48.493Z,4.00
2018-01-15T21:07:17.646Z,4.00
2018-01-15T21:09:46.025Z,4.00
2018-01-15T21:12:14.503Z,4.00
2018-01-15T21:14:42.935Z,4.00
2018-01-15T21:17:12.139Z,4.00
2018-01-15T21:19:40.662Z,4.00
2018-01-15T21:22:09.026Z,4.10
2018-01-15T21:24:37.400Z,4.10
2018-01-15T21:27:06.328Z,4.10
2018-01-15T21:29:34.723Z,4.10
2018-01-15T21:32:03.120Z,4.10
2018-01-15T21:34:32.443Z,4.20
2018-01-15T21:37:00.821Z,4.20
2018-01-15T21:39:29.239Z,4.20
2018-01-15T21:41:57.648Z,4.20
2018-01-15T21:44:26.538Z,4.20
2018-01-15T21:46:55.680Z,4.30
2018-01-15T21:49:24.070Z,4.30
2018-01-15T21:51:52.474Z,4.30
2018-01-15T21:54:21.322Z,4.30
2018-01-15T21:56:49.746Z,4.30
2018-01-15T21:59:18.167Z,4.30
2018-01-15T22:01:46.538Z,4.30
2018-01-15T22:04:16.226Z,4.30
2018-01-15T22:06:44.620Z,4.30
2018-01-15T22:09:13.785Z,4.30
2018-01-15T22:11:42.282Z,4.30
2018-01-15T22:14:11.432Z,4.40
2018-01-15T22:16:39.824Z,4.30
2018-01-15T22:19:08.231Z,4.40
2018-01-15T22:21:36.609Z,4.40
2018-01-15T22:24:05.759Z,4.40
2018-01-15T22:26:34.183Z,4.40
2018-01-15T22:29:02.578Z,4.40
2018-01-15T22:31:31.736Z,4.40
2018-01-15T22:34:00.342Z,4.40
2018-01-15T22:36:28.729Z,4.40
2018-01-15T22:38:57.117Z,4.40
2018-01-15T22:41:26.557Z,4.40
2018-01-15T22:43:54.969Z,4.40
2018-01-15T22:46:23.527Z,4.40
2018-01-15T22:48:52.028Z,4.40
2018-01-15T22:51:21.159Z,4.50
2018-01-15T22:53:50.407Z,4.50
2018-01-15T22:56:18.966Z,4.50
2018-01-15T22:58:47.338Z,4.50
2018-01-15T23:01:15.726Z,4.50
2018-01-15T23:03:44.389Z,4.50
2018-01-15T23:06:13.642Z,4.60
2018-01-15T23:08:42.133Z,4.60
2018-01-15T23:11:10.686Z,4.60
2018-01-15T23:13:39.075Z,4.60
2018-01-15T23:16:07.456Z,4.60
2018-01-15T23:18:36.023Z,4.60
2018-01-15T23:21:04.391Z,4.70
2018-01-15T23:23:32.755Z,4.70
2018-01-15T23:26:02.127Z,4.70
2018-01-15T23:28:30.501Z,4.80
2018-01-15T23:30:59.039Z,4.80
2018-01-15T23:33:27.539Z,4.80
2018-01-15T23:35:55.907Z,4.80
2018-01-15T23:38:24.282Z,4.80
2018-01-15T23:40:52.766Z,4.80
2018-01-15T23:43:21.167Z,4.80
2018-01-15T23:45:49.549Z,4.80
2018-01-15T23:48:18.387Z,4.90
2018-01-15T23:50:46.784Z,4.90
2018-01-15T23:53:15.168Z,4.90
2018-01-15T23:55:43.731Z,4.90
2018-01-15T23:58:12.109Z,5.00
